sensor_id;sensor_type;location;lat;lon;timestamp;P1;durP1;ratioP1;P2;durP2;ratioP2
40022;SDS011;25713;-35.352;149.036;2023-07-20T00:01:21;2.97;;;0.90;;
40022;SDS011;25713;-35.352;149.036;2023-07-20T00:03:51;2.72;;;1.20;;
40022;SDS011;25713;-35.352;149.036;2023-07-20T00:06:22;2.90;;;1.40;;
40022;SDS011;25713;-35.352;149.036;2023-07-20T00:08:53;2.50;;;1.13;;
40022;SDS011;25713;-35.352;149.036;2023-07-20T00:11:24;5.70;;;1.70;;
40022;SDS011;25713;-35.352;149.036;2023-07-20T00:13:55;5.03;;;1.10;;
40022;SDS011;25713;-35.352;149.036;2023-07-20T00:16:24;3.95;;;1.70;;
40022;SDS011;25713;-35.352;149.036;2023-07-20T00:18:56;3.28;;;1.58;;
40022;SDS011;25713;-35.352;149.036;2023-07-20T00:21:25;4.33;;;1.60;;
40022;SDS011;25713;-35.352;149.036;2023-07-20T00:23:55;3.95;;;1.48;;
40022;SDS011;25713;-35.352;149.036;2023-07-20T00:26:24;2.10;;;1.20;;
40022;SDS011;25713;-35.352;149.036;2023-07-20T00:28:54;3.13;;;1.33;;
40022;SDS011;25713;-35.352;149.036;2023-07-20T00:31:23;5.53;;;1.60;;
40022;SDS011;25713;-35.352;149.036;2023-07-20T00:33:52;3.97;;;1.60;;
40022;SDS011;25713;-35.352;149.036;2023-07-20T00:36:25;3.45;;;1.30;;
40022;SDS011;25713;-35.352;149.036;2023-07-20T00:38:54;5.78;;;1.27;;
40022;SDS011;25713;-35.352;149.036;2023-07-20T00:41:24;3.83;;;1.67;;
40022;SDS011;25713;-35.352;149.036;2023-07-20T00:43:53;3.08;;;1.35;;
40022;SDS011;25713;-35.352;149.036;2023-07-20T00:46:23;3.42;;;1.60;;
40022;SDS011;25713;-35.352;149.036;2023-07-20T00:48:53;1.70;;;1.10;;
40022;SDS011;25713;-35.352;149.036;2023-07-20T00:51:29;4.03;;;1.33;;
40022;SDS011;25713;-35.352;149.036;2023-07-20T00:53:58;4.10;;;1.45;;
40022;SDS011;25713;-35.352;149.036;2023-07-20T00:56:28;3.15;;;1.20;;
40022;SDS011;25713;-35.352;149.036;2023-07-20T00:58:58;3.20;;;1.40;;
40022;SDS011;25713;-35.352;149.036;2023-07-20T01:01:29;7.85;;;1.48;;
40022;SDS011;25713;-35.352;149.036;2023-07-20T01:04:00;3.83;;;1.40;;
40022;SDS011;25713;-35.352;149.036;2023-07-20T01:06:31;3.22;;;1.30;;
40022;SDS011;25713;-35.352;149.036;2023-07-20T01:09:27;4.15;;;1.52;;
40022;SDS011;25713;-35.352;149.036;2023-07-20T01:12:02;2.88;;;1.55;;
40022;SDS011;25713;-35.352;149.036;2023-07-20T01:14:35;3.65;;;1.70;;
40022;SDS011;25713;-35.352;149.036;2023-07-20T01:17:06;4.90;;;1.50;;
40022;SDS011;25713;-35.352;149.036;2023-07-20T01:19:39;2.78;;;1.38;;
40022;SDS011;25713;-35.352;149.036;2023-07-20T01:22:11;3.15;;;1.27;;
40022;SDS011;25713;-35.352;149.036;2023-07-20T01:25:03;7.20;;;1.10;;
40022;SDS011;25713;-35.352;149.036;2023-07-20T01:28:04;5.57;;;1.52;;
40022;SDS011;25713;-35.352;149.036;2023-07-20T01:30:53;3.38;;;1.40;;
40022;SDS011;25713;-35.352;149.036;2023-07-20T01:33:31;3.55;;;1.40;;
40022;SDS011;25713;-35.352;149.036;2023-07-20T01:38:30;2.85;;;1.23;;
40022;SDS011;25713;-35.352;149.036;2023-07-20T01:41:00;5.93;;;1.45;;
40022;SDS011;25713;-35.352;149.036;2023-07-20T01:43:29;3.15;;;1.48;;
40022;SDS011;25713;-35.352;149.036;2023-07-20T01:45:59;3.45;;;1.10;;
40022;SDS011;25713;-35.352;149.036;2023-07-20T01:48:28;5.95;;;1.25;;
40022;SDS011;25713;-35.352;149.036;2023-07-20T01:51:00;4.15;;;1.48;;
40022;SDS011;25713;-35.352;149.036;2023-07-20T01:53:30;4.32;;;1.13;;
40022;SDS011;25713;-35.352;149.036;2023-07-20T01:55:59;6.78;;;1.40;;
40022;SDS011;25713;-35.352;149.036;2023-07-20T01:58:30;2.55;;;1.02;;
40022;SDS011;25713;-35.352;149.036;2023-07-20T02:01:00;6.72;;;1.00;;
40022;SDS011;25713;-35.352;149.036;2023-07-20T02:03:32;5.43;;;1.52;;
40022;SDS011;25713;-35.352;149.036;2023-07-20T02:06:02;3.67;;;1.00;;
40022;SDS011;25713;-35.352;149.036;2023-07-20T02:08:32;4.35;;;0.82;;
40022;SDS011;25713;-35.352;149.036;2023-07-20T02:11:01;4.10;;;1.02;;
40022;SDS011;25713;-35.352;149.036;2023-07-20T02:13:31;3.03;;;0.82;;
40022;SDS011;25713;-35.352;149.036;2023-07-20T02:16:01;2.40;;;1.08;;
40022;SDS011;25713;-35.352;149.036;2023-07-20T02:18:34;2.53;;;1.40;;
40022;SDS011;25713;-35.352;149.036;2023-07-20T02:21:03;2.47;;;0.80;;
40022;SDS011;25713;-35.352;149.036;2023-07-20T02:23:33;4.07;;;0.73;;
40022;SDS011;25713;-35.352;149.036;2023-07-20T02:26:03;1.95;;;0.90;;
40022;SDS011;25713;-35.352;149.036;2023-07-20T02:28:33;3.03;;;1.00;;
40022;SDS011;25713;-35.352;149.036;2023-07-20T02:31:02;2.47;;;0.90;;
40022;SDS011;25713;-35.352;149.036;2023-07-20T02:33:34;2.75;;;0.73;;
40022;SDS011;25713;-35.352;149.036;2023-07-20T02:36:04;4.80;;;0.98;;
40022;SDS011;25713;-35.352;149.036;2023-07-20T02:38:34;2.67;;;0.63;;
40022;SDS011;25713;-35.352;149.036;2023-07-20T02:41:03;2.53;;;0.80;;
40022;SDS011;25713;-35.352;149.036;2023-07-20T02:43:32;1.23;;;0.70;;
40022;SDS011;25713;-35.352;149.036;2023-07-20T02:46:02;2.30;;;0.80;;
40022;SDS011;25713;-35.352;149.036;2023-07-20T02:48:31;2.38;;;0.80;;
40022;SDS011;25713;-35.352;149.036;2023-07-20T02:51:02;3.80;;;0.63;;
40022;SDS011;25713;-35.352;149.036;2023-07-20T02:53:32;2.65;;;1.00;;
40022;SDS011;25713;-35.352;149.036;2023-07-20T02:56:02;1.88;;;0.65;;
40022;SDS011;25713;-35.352;149.036;2023-07-20T02:58:33;0.95;;;0.55;;
40022;SDS011;25713;-35.352;149.036;2023-07-20T03:01:03;2.75;;;0.43;;
40022;SDS011;25713;-35.352;149.036;2023-07-20T03:03:35;2.65;;;0.50;;
40022;SDS011;25713;-35.352;149.036;2023-07-20T03:06:05;2.72;;;0.60;;
40022;SDS011;25713;-35.352;149.036;2023-07-20T03:08:34;1.27;;;0.55;;
40022;SDS011;25713;-35.352;149.036;2023-07-20T03:11:04;1.05;;;0.50;;
40022;SDS011;25713;-35.352;149.036;2023-07-20T03:13:34;0.90;;;0.40;;
40022;SDS011;25713;-35.352;149.036;2023-07-20T03:16:04;1.30;;;0.50;;
40022;SDS011;25713;-35.352;149.036;2023-07-20T03:18:37;2.25;;;0.70;;
40022;SDS011;25713;-35.352;149.036;2023-07-20T03:21:08;0.70;;;0.50;;
40022;SDS011;25713;-35.352;149.036;2023-07-20T03:23:38;1.80;;;0.57;;
40022;SDS011;25713;-35.352;149.036;2023-07-20T03:26:08;1.38;;;0.60;;
40022;SDS011;25713;-35.352;149.036;2023-07-20T03:28:38;1.58;;;0.50;;
40022;SDS011;25713;-35.352;149.036;2023-07-20T03:31:10;2.17;;;0.60;;
40022;SDS011;25713;-35.352;149.036;2023-07-20T03:33:44;0.97;;;0.50;;
40022;SDS011;25713;-35.352;149.036;2023-07-20T03:36:13;1.30;;;0.40;;
40022;SDS011;25713;-35.352;149.036;2023-07-20T03:38:43;0.80;;;0.35;;
40022;SDS011;25713;-35.352;149.036;2023-07-20T03:41:13;0.85;;;0.40;;
40022;SDS011;25713;-35.352;149.036;2023-07-20T03:43:42;1.08;;;0.60;;
40022;SDS011;25713;-35.352;149.036;2023-07-20T03:46:12;1.75;;;0.52;;
40022;SDS011;25713;-35.352;149.036;2023-07-20T03:48:41;1.27;;;0.43;;
40022;SDS011;25713;-35.352;149.036;2023-07-20T03:51:13;3.13;;;0.60;;
40022;SDS011;25713;-35.352;149.036;2023-07-20T03:53:42;2.97;;;0.52;;
40022;SDS011;25713;-35.352;149.036;2023-07-20T03:56:11;2.67;;;0.82;;
40022;SDS011;25713;-35.352;149.036;2023-07-20T03:58:41;1.60;;;0.47;;
40022;SDS011;25713;-35.352;149.036;2023-07-20T04:01:11;0.98;;;0.47;;
40022;SDS011;25713;-35.352;149.036;2023-07-20T04:03:40;2.72;;;0.43;;
40022;SDS011;25713;-35.352;149.036;2023-07-20T04:06:12;1.05;;;0.45;;
40022;SDS011;25713;-35.352;149.036;2023-07-20T04:08:42;1.60;;;0.60;;
40022;SDS011;25713;-35.352;149.036;2023-07-20T04:11:11;1.85;;;0.30;;
40022;SDS011;25713;-35.352;149.036;2023-07-20T04:13:41;1.67;;;0.57;;
40022;SDS011;25713;-35.352;149.036;2023-07-20T04:16:10;2.58;;;0.60;;
40022;SDS011;25713;-35.352;149.036;2023-07-20T04:18:40;0.50;;;0.32;;
40022;SDS011;25713;-35.352;149.036;2023-07-20T04:21:12;1.55;;;0.70;;
40022;SDS011;25713;-35.352;149.036;2023-07-20T04:23:41;2.55;;;0.50;;
40022;SDS011;25713;-35.352;149.036;2023-07-20T04:26:11;1.02;;;0.40;;
40022;SDS011;25713;-35.352;149.036;2023-07-20T04:28:41;2.78;;;0.60;;
40022;SDS011;25713;-35.352;149.036;2023-07-20T04:31:15;2.25;;;0.50;;
40022;SDS011;25713;-35.352;149.036;2023-07-20T04:33:45;1.58;;;0.50;;
40022;SDS011;25713;-35.352;149.036;2023-07-20T04:36:17;1.00;;;0.50;;
40022;SDS011;25713;-35.352;149.036;2023-07-20T04:38:46;2.45;;;0.32;;
40022;SDS011;25713;-35.352;149.036;2023-07-20T04:41:20;1.27;;;0.35;;
40022;SDS011;25713;-35.352;149.036;2023-07-20T04:43:52;1.33;;;0.40;;
40022;SDS011;25713;-35.352;149.036;2023-07-20T04:46:30;2.55;;;0.52;;
40022;SDS011;25713;-35.352;149.036;2023-07-20T04:49:02;1.58;;;0.40;;
40022;SDS011;25713;-35.352;149.036;2023-07-20T04:51:39;4.10;;;1.15;;
40022;SDS011;25713;-35.352;149.036;2023-07-20T04:54:09;1.52;;;0.68;;
40022;SDS011;25713;-35.352;149.036;2023-07-20T04:56:39;1.63;;;0.57;;
40022;SDS011;25713;-35.352;149.036;2023-07-20T04:59:11;6.03;;;0.85;;
40022;SDS011;25713;-35.352;149.036;2023-07-20T05:01:40;5.22;;;0.60;;
40022;SDS011;25713;-35.352;149.036;2023-07-20T05:04:10;0.73;;;0.50;;
40022;SDS011;25713;-35.352;149.036;2023-07-20T05:06:43;1.73;;;0.40;;
40022;SDS011;25713;-35.352;149.036;2023-07-20T05:09:12;2.85;;;0.55;;
40022;SDS011;25713;-35.352;149.036;2023-07-20T05:11:42;5.10;;;1.02;;
40022;SDS011;25713;-35.352;149.036;2023-07-20T05:14:12;2.88;;;0.80;;
40022;SDS011;25713;-35.352;149.036;2023-07-20T05:16:42;1.38;;;0.73;;
40022;SDS011;25713;-35.352;149.036;2023-07-20T05:19:12;1.83;;;0.80;;
40022;SDS011;25713;-35.352;149.036;2023-07-20T05:21:45;4.18;;;0.70;;
40022;SDS011;25713;-35.352;149.036;2023-07-20T05:24:15;1.10;;;0.50;;
40022;SDS011;25713;-35.352;149.036;2023-07-20T05:26:44;2.45;;;0.60;;
40022;SDS011;25713;-35.352;149.036;2023-07-20T05:29:14;1.70;;;0.50;;
40022;SDS011;25713;-35.352;149.036;2023-07-20T05:31:43;1.70;;;0.43;;
40022;SDS011;25713;-35.352;149.036;2023-07-20T05:34:13;2.63;;;0.55;;
40022;SDS011;25713;-35.352;149.036;2023-07-20T05:36:44;1.05;;;0.43;;
40022;SDS011;25713;-35.352;149.036;2023-07-20T05:39:14;1.52;;;0.63;;
40022;SDS011;25713;-35.352;149.036;2023-07-20T05:41:44;0.85;;;0.30;;
40022;SDS011;25713;-35.352;149.036;2023-07-20T05:44:13;1.58;;;0.40;;
40022;SDS011;25713;-35.352;149.036;2023-07-20T05:46:42;1.30;;;0.47;;
40022;SDS011;25713;-35.352;149.036;2023-07-20T05:49:12;2.05;;;0.70;;
40022;SDS011;25713;-35.352;149.036;2023-07-20T05:51:42;2.00;;;0.47;;
40022;SDS011;25713;-35.352;149.036;2023-07-20T05:54:14;1.25;;;0.40;;
40022;SDS011;25713;-35.352;149.036;2023-07-20T05:56:43;1.30;;;0.50;;
40022;SDS011;25713;-35.352;149.036;2023-07-20T05:59:14;1.85;;;0.60;;
40022;SDS011;25713;-35.352;149.036;2023-07-20T06:01:43;0.65;;;0.35;;
40022;SDS011;25713;-35.352;149.036;2023-07-20T06:04:13;1.25;;;0.43;;
40022;SDS011;25713;-35.352;149.036;2023-07-20T06:06:43;2.42;;;0.40;;
40022;SDS011;25713;-35.352;149.036;2023-07-20T06:09:14;0.50;;;0.40;;
40022;SDS011;25713;-35.352;149.036;2023-07-20T06:11:44;1.92;;;0.40;;
40022;SDS011;25713;-35.352;149.036;2023-07-20T06:14:13;2.13;;;0.45;;
40022;SDS011;25713;-35.352;149.036;2023-07-20T06:16:43;0.98;;;0.47;;
40022;SDS011;25713;-35.352;149.036;2023-07-20T06:19:12;2.58;;;0.32;;
40022;SDS011;25713;-35.352;149.036;2023-07-20T06:21:42;1.08;;;0.32;;
40022;SDS011;25713;-35.352;149.036;2023-07-20T06:24:14;0.43;;;0.40;;
40022;SDS011;25713;-35.352;149.036;2023-07-20T06:26:44;2.97;;;0.47;;
40022;SDS011;25713;-35.352;149.036;2023-07-20T06:29:13;1.95;;;0.85;;
40022;SDS011;25713;-35.352;149.036;2023-07-20T06:31:43;1.67;;;0.70;;
40022;SDS011;25713;-35.352;149.036;2023-07-20T06:34:12;0.52;;;0.32;;
40022;SDS011;25713;-35.352;149.036;2023-07-20T06:36:41;0.60;;;0.40;;
40022;SDS011;25713;-35.352;149.036;2023-07-20T06:39:11;1.13;;;0.60;;
40022;SDS011;25713;-35.352;149.036;2023-07-20T06:41:44;4.13;;;0.60;;
40022;SDS011;25713;-35.352;149.036;2023-07-20T06:44:13;2.25;;;0.70;;
40022;SDS011;25713;-35.352;149.036;2023-07-20T06:46:43;1.58;;;0.65;;
40022;SDS011;25713;-35.352;149.036;2023-07-20T06:49:19;1.17;;;0.40;;
40022;SDS011;25713;-35.352;149.036;2023-07-20T06:51:53;4.68;;;0.55;;
40022;SDS011;25713;-35.352;149.036;2023-07-20T06:54:24;3.72;;;0.50;;
40022;SDS011;25713;-35.352;149.036;2023-07-20T06:56:53;2.70;;;0.50;;
40022;SDS011;25713;-35.352;149.036;2023-07-20T06:59:23;1.10;;;0.40;;
40022;SDS011;25713;-35.352;149.036;2023-07-20T07:01:52;3.17;;;0.70;;
40022;SDS011;25713;-35.352;149.036;2023-07-20T07:04:22;1.30;;;0.40;;
40022;SDS011;25713;-35.352;149.036;2023-07-20T07:06:52;2.72;;;0.30;;
40022;SDS011;25713;-35.352;149.036;2023-07-20T07:09:21;1.77;;;0.57;;
40022;SDS011;25713;-35.352;149.036;2023-07-20T07:11:54;0.82;;;0.40;;
40022;SDS011;25713;-35.352;149.036;2023-07-20T07:14:23;1.77;;;0.35;;
40022;SDS011;25713;-35.352;149.036;2023-07-20T07:16:53;2.00;;;0.60;;
40022;SDS011;25713;-35.352;149.036;2023-07-20T07:19:22;2.15;;;0.68;;
40022;SDS011;25713;-35.352;149.036;2023-07-20T07:21:52;1.33;;;0.68;;
40022;SDS011;25713;-35.352;149.036;2023-07-20T07:24:21;1.50;;;0.50;;
40022;SDS011;25713;-35.352;149.036;2023-07-20T07:26:53;1.45;;;0.40;;
40022;SDS011;25713;-35.352;149.036;2023-07-20T07:29:23;1.05;;;0.57;;
40022;SDS011;25713;-35.352;149.036;2023-07-20T07:31:52;1.27;;;0.50;;
40022;SDS011;25713;-35.352;149.036;2023-07-20T07:34:22;1.55;;;0.50;;
40022;SDS011;25713;-35.352;149.036;2023-07-20T07:36:51;1.17;;;0.52;;
40022;SDS011;25713;-35.352;149.036;2023-07-20T07:39:20;0.68;;;0.40;;
40022;SDS011;25713;-35.352;149.036;2023-07-20T07:41:53;1.27;;;0.85;;
40022;SDS011;25713;-35.352;149.036;2023-07-20T07:44:22;0.60;;;0.52;;
40022;SDS011;25713;-35.352;149.036;2023-07-20T07:46:52;2.50;;;0.52;;
40022;SDS011;25713;-35.352;149.036;2023-07-20T07:49:21;1.25;;;0.60;;
40022;SDS011;25713;-35.352;149.036;2023-07-20T07:51:51;0.88;;;0.63;;
40022;SDS011;25713;-35.352;149.036;2023-07-20T07:54:20;2.65;;;0.82;;
40022;SDS011;25713;-35.352;149.036;2023-07-20T07:56:53;1.48;;;0.80;;
40022;SDS011;25713;-35.352;149.036;2023-07-20T07:59:23;1.63;;;0.52;;
40022;SDS011;25713;-35.352;149.036;2023-07-20T08:01:52;2.50;;;0.80;;
40022;SDS011;25713;-35.352;149.036;2023-07-20T08:04:21;1.48;;;0.50;;
40022;SDS011;25713;-35.352;149.036;2023-07-20T08:06:51;2.22;;;0.73;;
40022;SDS011;25713;-35.352;149.036;2023-07-20T08:09:20;1.83;;;0.73;;
40022;SDS011;25713;-35.352;149.036;2023-07-20T08:11:52;1.52;;;0.70;;
40022;SDS011;25713;-35.352;149.036;2023-07-20T08:14:21;1.48;;;0.80;;
40022;SDS011;25713;-35.352;149.036;2023-07-20T08:16:51;1.98;;;0.65;;
40022;SDS011;25713;-35.352;149.036;2023-07-20T08:19:20;1.38;;;0.70;;
40022;SDS011;25713;-35.352;149.036;2023-07-20T08:21:49;1.35;;;0.70;;
40022;SDS011;25713;-35.352;149.036;2023-07-20T08:24:19;1.80;;;0.70;;
40022;SDS011;25713;-35.352;149.036;2023-07-20T08:26:48;3.45;;;0.63;;
40022;SDS011;25713;-35.352;149.036;2023-07-20T08:29:20;1.15;;;0.70;;
40022;SDS011;25713;-35.352;149.036;2023-07-20T08:31:52;1.52;;;0.80;;
40022;SDS011;25713;-35.352;149.036;2023-07-20T08:34:21;2.05;;;0.80;;
40022;SDS011;25713;-35.352;149.036;2023-07-20T08:36:51;1.25;;;0.75;;
40022;SDS011;25713;-35.352;149.036;2023-07-20T08:39:20;2.10;;;0.65;;
40022;SDS011;25713;-35.352;149.036;2023-07-20T08:41:54;4.35;;;0.80;;
40022;SDS011;25713;-35.352;149.036;2023-07-20T08:44:27;1.70;;;0.60;;
40022;SDS011;25713;-35.352;149.036;2023-07-20T08:46:57;1.55;;;0.80;;
40022;SDS011;25713;-35.352;149.036;2023-07-20T08:49:27;1.95;;;0.50;;
40022;SDS011;25713;-35.352;149.036;2023-07-20T08:51:59;2.08;;;0.70;;
40022;SDS011;25713;-35.352;149.036;2023-07-20T08:54:30;1.48;;;0.50;;
40022;SDS011;25713;-35.352;149.036;2023-07-20T08:57:03;2.28;;;0.47;;
40022;SDS011;25713;-35.352;149.036;2023-07-20T08:59:33;1.35;;;0.45;;
40022;SDS011;25713;-35.352;149.036;2023-07-20T09:02:04;0.77;;;0.38;;
40022;SDS011;25713;-35.352;149.036;2023-07-20T09:04:35;1.13;;;0.47;;
40022;SDS011;25713;-35.352;149.036;2023-07-20T09:07:05;2.40;;;0.50;;
40022;SDS011;25713;-35.352;149.036;2023-07-20T09:09:39;2.40;;;0.60;;
40022;SDS011;25713;-35.352;149.036;2023-07-20T09:12:15;1.05;;;0.40;;
40022;SDS011;25713;-35.352;149.036;2023-07-20T09:14:45;0.55;;;0.30;;
40022;SDS011;25713;-35.352;149.036;2023-07-20T09:17:14;0.52;;;0.30;;
40022;SDS011;25713;-35.352;149.036;2023-07-20T09:19:47;1.77;;;0.50;;
40022;SDS011;25713;-35.352;149.036;2023-07-20T09:22:16;1.40;;;0.50;;
40022;SDS011;25713;-35.352;149.036;2023-07-20T09:24:46;1.83;;;0.52;;
40022;SDS011;25713;-35.352;149.036;2023-07-20T09:27:17;0.90;;;0.50;;
40022;SDS011;25713;-35.352;149.036;2023-07-20T09:29:50;0.73;;;0.38;;
40022;SDS011;25713;-35.352;149.036;2023-07-20T09:32:20;1.40;;;0.32;;
40022;SDS011;25713;-35.352;149.036;2023-07-20T09:34:50;1.63;;;0.63;;
40022;SDS011;25713;-35.352;149.036;2023-07-20T09:37:20;1.00;;;0.40;;
40022;SDS011;25713;-35.352;149.036;2023-07-20T09:39:51;1.40;;;0.40;;
40022;SDS011;25713;-35.352;149.036;2023-07-20T09:42:23;1.08;;;0.50;;
40022;SDS011;25713;-35.352;149.036;2023-07-20T09:44:54;0.77;;;0.40;;
40022;SDS011;25713;-35.352;149.036;2023-07-20T09:47:24;2.17;;;0.43;;
40022;SDS011;25713;-35.352;149.036;2023-07-20T09:50:01;0.77;;;0.40;;
40022;SDS011;25713;-35.352;149.036;2023-07-20T09:52:30;2.33;;;0.57;;
40022;SDS011;25713;-35.352;149.036;2023-07-20T09:55:01;0.60;;;0.52;;
40022;SDS011;25713;-35.352;149.036;2023-07-20T09:57:34;2.63;;;0.80;;
40022;SDS011;25713;-35.352;149.036;2023-07-20T10:00:05;1.10;;;0.50;;
40022;SDS011;25713;-35.352;149.036;2023-07-20T10:02:37;0.82;;;0.40;;
40022;SDS011;25713;-35.352;149.036;2023-07-20T10:05:10;1.60;;;0.55;;
40022;SDS011;25713;-35.352;149.036;2023-07-20T10:07:43;2.05;;;0.70;;
40022;SDS011;25713;-35.352;149.036;2023-07-20T10:10:14;2.63;;;0.50;;
40022;SDS011;25713;-35.352;149.036;2023-07-20T10:12:48;0.98;;;0.63;;
40022;SDS011;25713;-35.352;149.036;2023-07-20T10:15:19;2.53;;;0.80;;
40022;SDS011;25713;-35.352;149.036;2023-07-20T10:18:01;3.42;;;0.50;;
40022;SDS011;25713;-35.352;149.036;2023-07-20T10:20:36;1.75;;;0.55;;
40022;SDS011;25713;-35.352;149.036;2023-07-20T10:23:07;1.03;;;0.70;;
40022;SDS011;25713;-35.352;149.036;2023-07-20T10:25:36;1.75;;;0.40;;
40022;SDS011;25713;-35.352;149.036;2023-07-20T10:28:09;2.45;;;0.60;;
40022;SDS011;25713;-35.352;149.036;2023-07-20T10:30:39;1.05;;;0.50;;
40022;SDS011;25713;-35.352;149.036;2023-07-20T10:33:09;0.68;;;0.50;;
40022;SDS011;25713;-35.352;149.036;2023-07-20T10:41:17;1.85;;;0.50;;
40022;SDS011;25713;-35.352;149.036;2023-07-20T10:43:55;0.98;;;0.45;;
40022;SDS011;25713;-35.352;149.036;2023-07-20T10:46:35;2.15;;;0.40;;
40022;SDS011;25713;-35.352;149.036;2023-07-20T10:49:11;3.15;;;0.60;;
40022;SDS011;25713;-35.352;149.036;2023-07-20T10:51:41;0.80;;;0.50;;
40022;SDS011;25713;-35.352;149.036;2023-07-20T10:57:23;1.27;;;0.60;;
40022;SDS011;25713;-35.352;149.036;2023-07-20T11:00:11;3.80;;;0.70;;
40022;SDS011;25713;-35.352;149.036;2023-07-20T11:02:45;2.97;;;0.50;;
40022;SDS011;25713;-35.352;149.036;2023-07-20T11:08:05;3.17;;;0.65;;
40022;SDS011;25713;-35.352;149.036;2023-07-20T11:10:38;2.67;;;0.82;;
40022;SDS011;25713;-35.352;149.036;2023-07-20T11:13:18;1.60;;;0.52;;
40022;SDS011;25713;-35.352;149.036;2023-07-20T11:16:01;1.33;;;0.60;;
40022;SDS011;25713;-35.352;149.036;2023-07-20T11:21:01;2.20;;;0.95;;
40022;SDS011;25713;-35.352;149.036;2023-07-20T11:23:34;1.88;;;0.60;;
40022;SDS011;25713;-35.352;149.036;2023-07-20T11:26:05;2.70;;;0.88;;
40022;SDS011;25713;-35.352;149.036;2023-07-20T11:28:35;0.90;;;0.38;;
40022;SDS011;25713;-35.352;149.036;2023-07-20T11:31:08;2.58;;;1.00;;
40022;SDS011;25713;-35.352;149.036;2023-07-20T11:33:37;1.77;;;0.70;;
40022;SDS011;25713;-35.352;149.036;2023-07-20T11:36:07;2.83;;;0.80;;
40022;SDS011;25713;-35.352;149.036;2023-07-20T11:38:37;3.22;;;0.82;;
40022;SDS011;25713;-35.352;149.036;2023-07-20T11:41:08;2.65;;;1.17;;
40022;SDS011;25713;-35.352;149.036;2023-07-20T11:43:38;2.58;;;0.80;;
40022;SDS011;25713;-35.352;149.036;2023-07-20T11:46:12;3.17;;;1.00;;
40022;SDS011;25713;-35.352;149.036;2023-07-20T11:48:41;3.22;;;1.00;;
40022;SDS011;25713;-35.352;149.036;2023-07-20T11:51:13;2.78;;;1.05;;
40022;SDS011;25713;-35.352;149.036;2023-07-20T11:53:43;2.58;;;0.93;;
40022;SDS011;25713;-35.352;149.036;2023-07-20T11:56:14;1.92;;;0.90;;
40022;SDS011;25713;-35.352;149.036;2023-07-20T11:58:44;2.25;;;1.00;;
40022;SDS011;25713;-35.352;149.036;2023-07-20T12:01:16;2.00;;;1.10;;
40022;SDS011;25713;-35.352;149.036;2023-07-20T12:03:47;3.40;;;1.95;;
40022;SDS011;25713;-35.352;149.036;2023-07-20T12:06:17;1.98;;;1.05;;
40022;SDS011;25713;-35.352;149.036;2023-07-20T12:08:50;3.33;;;1.25;;
40022;SDS011;25713;-35.352;149.036;2023-07-20T12:11:32;3.50;;;1.05;;
40022;SDS011;25713;-35.352;149.036;2023-07-20T12:14:03;3.78;;;1.20;;
40022;SDS011;25713;-35.352;149.036;2023-07-20T12:16:36;4.95;;;1.40;;
40022;SDS011;25713;-35.352;149.036;2023-07-20T12:19:06;2.00;;;1.30;;
40022;SDS011;25713;-35.352;149.036;2023-07-20T12:21:38;3.90;;;1.40;;
40022;SDS011;25713;-35.352;149.036;2023-07-20T12:24:09;2.05;;;1.10;;
40022;SDS011;25713;-35.352;149.036;2023-07-20T12:26:39;2.97;;;1.35;;
40022;SDS011;25713;-35.352;149.036;2023-07-20T12:29:09;4.78;;;1.60;;
40022;SDS011;25713;-35.352;149.036;2023-07-20T12:31:41;4.97;;;1.42;;
40022;SDS011;25713;-35.352;149.036;2023-07-20T12:36:39;3.47;;;1.48;;
40022;SDS011;25713;-35.352;149.036;2023-07-20T12:39:08;4.38;;;1.90;;
40022;SDS011;25713;-35.352;149.036;2023-07-20T12:41:37;4.43;;;1.77;;
40022;SDS011;25713;-35.352;149.036;2023-07-20T12:44:10;4.50;;;1.92;;
40022;SDS011;25713;-35.352;149.036;2023-07-20T12:49:10;3.40;;;1.55;;
40022;SDS011;25713;-35.352;149.036;2023-07-20T12:51:39;4.95;;;1.75;;
40022;SDS011;25713;-35.352;149.036;2023-07-20T12:54:09;5.13;;;1.80;;
40022;SDS011;25713;-35.352;149.036;2023-07-20T12:56:38;2.65;;;1.38;;
40022;SDS011;25713;-35.352;149.036;2023-07-20T12:59:08;4.75;;;1.35;;
40022;SDS011;25713;-35.352;149.036;2023-07-20T13:01:37;5.30;;;1.95;;
40022;SDS011;25713;-35.352;149.036;2023-07-20T13:04:09;2.30;;;1.50;;
40022;SDS011;25713;-35.352;149.036;2023-07-20T13:06:38;4.60;;;1.70;;
40022;SDS011;25713;-35.352;149.036;2023-07-20T13:09:08;4.55;;;1.40;;
40022;SDS011;25713;-35.352;149.036;2023-07-20T13:11:38;5.65;;;1.77;;
40022;SDS011;25713;-35.352;149.036;2023-07-20T13:14:07;3.90;;;1.58;;
40022;SDS011;25713;-35.352;149.036;2023-07-20T13:16:37;3.00;;;1.40;;
40022;SDS011;25713;-35.352;149.036;2023-07-20T13:19:06;3.05;;;1.20;;
40022;SDS011;25713;-35.352;149.036;2023-07-20T13:21:38;3.13;;;1.25;;
40022;SDS011;25713;-35.352;149.036;2023-07-20T13:24:07;2.88;;;1.20;;
40022;SDS011;25713;-35.352;149.036;2023-07-20T13:26:37;2.13;;;1.08;;
40022;SDS011;25713;-35.352;149.036;2023-07-20T13:29:06;1.70;;;1.13;;
40022;SDS011;25713;-35.352;149.036;2023-07-20T13:31:36;3.13;;;1.25;;
40022;SDS011;25713;-35.352;149.036;2023-07-20T13:34:05;3.05;;;1.33;;
40022;SDS011;25713;-35.352;149.036;2023-07-20T13:36:37;5.00;;;1.50;;
40022;SDS011;25713;-35.352;149.036;2023-07-20T13:39:07;4.03;;;1.27;;
40022;SDS011;25713;-35.352;149.036;2023-07-20T13:41:36;4.68;;;1.30;;
40022;SDS011;25713;-35.352;149.036;2023-07-20T13:44:05;2.58;;;1.15;;
40022;SDS011;25713;-35.352;149.036;2023-07-20T13:46:35;2.58;;;1.10;;
40022;SDS011;25713;-35.352;149.036;2023-07-20T13:49:04;2.35;;;1.00;;
40022;SDS011;25713;-35.352;149.036;2023-07-20T13:51:34;2.30;;;1.00;;
40022;SDS011;25713;-35.352;149.036;2023-07-20T13:54:05;3.85;;;1.63;;
40022;SDS011;25713;-35.352;149.036;2023-07-20T13:56:34;3.88;;;1.10;;
40022;SDS011;25713;-35.352;149.036;2023-07-20T13:59:04;1.95;;;1.25;;
40022;SDS011;25713;-35.352;149.036;2023-07-20T14:01:34;1.95;;;0.82;;
40022;SDS011;25713;-35.352;149.036;2023-07-20T14:04:04;2.25;;;1.08;;
40022;SDS011;25713;-35.352;149.036;2023-07-20T14:06:33;2.53;;;0.98;;
40022;SDS011;25713;-35.352;149.036;2023-07-20T14:09:05;2.88;;;1.00;;
40022;SDS011;25713;-35.352;149.036;2023-07-20T14:11:34;2.00;;;1.10;;
40022;SDS011;25713;-35.352;149.036;2023-07-20T14:14:04;2.88;;;1.05;;
40022;SDS011;25713;-35.352;149.036;2023-07-20T14:16:34;3.63;;;1.00;;
40022;SDS011;25713;-35.352;149.036;2023-07-20T14:19:03;2.25;;;0.80;;
40022;SDS011;25713;-35.352;149.036;2023-07-20T14:21:32;2.78;;;1.63;;
40022;SDS011;25713;-35.352;149.036;2023-07-20T14:24:02;4.40;;;1.00;;
40022;SDS011;25713;-35.352;149.036;2023-07-20T14:26:34;3.28;;;1.17;;
40022;SDS011;25713;-35.352;149.036;2023-07-20T14:29:03;2.92;;;0.82;;
40022;SDS011;25713;-35.352;149.036;2023-07-20T14:31:33;2.65;;;0.85;;
40022;SDS011;25713;-35.352;149.036;2023-07-20T14:34:02;1.42;;;0.70;;
40022;SDS011;25713;-35.352;149.036;2023-07-20T14:36:32;3.70;;;0.93;;
40022;SDS011;25713;-35.352;149.036;2023-07-20T14:39:01;1.73;;;0.80;;
40022;SDS011;25713;-35.352;149.036;2023-07-20T14:41:33;3.20;;;0.93;;
40022;SDS011;25713;-35.352;149.036;2023-07-20T14:44:02;2.78;;;0.90;;
40022;SDS011;25713;-35.352;149.036;2023-07-20T14:46:32;1.38;;;0.60;;
40022;SDS011;25713;-35.352;149.036;2023-07-20T16:00:27;1.77;;;0.40;;
40022;SDS011;25713;-35.352;149.036;2023-07-20T16:02:57;0.43;;;0.20;;